Time;durP1;ratioP1;P1;durP2;ratioP2;P2;SDS_P1;SDS_P2;PMS_P1;PMS_P2;Temp;Humidity;BMP_temperature;BMP_pressure;BME280_temperature;BME280_humidity;BME280_pressure;Samples;Min_cycle;Max_cycle;Signal;HPM_P1;HPM_P2
2022/06/23 00:00:44;;;;;;;3.08;1.73;;;14.40;66.90;;;;;;4103340;28;20503;-86
2022/06/23 00:03:06;;;;;;;2.25;1.60;;;14.40;66.80;;;;;;4106665;28;20034;-87
2022/06/23 00:05:35;;;;;;;2.10;1.50;;;14.40;66.80;;;;;;4115600;28;20154;-88
2022/06/23 00:07:58;;;;;;;3.33;1.35;;;14.40;66.90;;;;;;4105982;28;20606;-86
2022/06/23 00:10:38;;;;;;;3.47;1.95;;;14.40;66.90;;;;;;4095952;28;20278;-89
2022/06/23 00:12:59;;;;;;;3.63;1.70;;;14.40;67.10;;;;;;4102412;28;20035;-86
2022/06/23 00:15:38;;;;;;;2.45;1.38;;;14.40;67.10;;;;;;4108159;28;20042;-88
2022/06/23 00:18:02;;;;;;;2.70;1.42;;;14.40;67.30;;;;;;4111009;28;20046;-87
2022/06/23 00:20:30;;;;;;;2.92;1.38;;;14.40;67.20;;;;;;4116182;28;20045;-87
2022/06/23 00:23:04;;;;;;;2.88;1.58;;;14.40;67.30;;;;;;4107539;28;20037;-87
2022/06/23 00:25:46;;;;;;;4.57;1.70;;;14.40;67.40;;;;;;4110541;28;20057;-86
2022/06/23 00:28:18;;;;;;;3.17;1.50;;;14.40;67.30;;;;;;4113136;28;20129;-86
2022/06/23 00:30:41;;;;;;;5.00;1.90;;;14.40;67.10;;;;;;4112757;28;20042;-86
2022/06/23 00:33:20;;;;;;;1.87;1.47;;;14.40;67.00;;;;;;4111898;28;20119;-90
2022/06/23 00:35:41;;;;;;;2.50;1.58;;;14.40;66.90;;;;;;4102413;28;20030;-87
2022/06/23 00:38:02;;;;;;;3.20;1.60;;;14.40;66.90;;;;;;4113103;28;20038;-87
2022/06/23 00:40:24;;;;;;;3.38;1.92;;;14.40;66.90;;;;;;4081531;28;20031;-86
2022/06/23 00:42:58;;;;;;;4.65;1.40;;;14.40;67.00;;;;;;4114271;28;20037;-88
2022/06/23 00:45:29;;;;;;;2.70;1.55;;;14.40;67.00;;;;;;4112566;28;20300;-89
2022/06/23 00:47:52;;;;;;;2.45;1.60;;;14.40;66.90;;;;;;4099816;28;20728;-87
2022/06/23 00:50:34;;;;;;;2.80;1.70;;;14.40;66.90;;;;;;4118096;28;20332;-88
2022/06/23 00:53:12;;;;;;;4.15;2.00;;;14.40;66.90;;;;;;4102446;28;20469;-91
2022/06/23 00:55:43;;;;;;;1.88;1.23;;;14.40;66.80;;;;;;4107126;28;20046;-89
2022/06/23 00:58:18;;;;;;;2.60;1.50;;;14.40;66.80;;;;;;4102714;28;22546;-86
2022/06/23 01:00:41;;;;;;;2.72;1.67;;;14.40;66.90;;;;;;4098691;28;20126;-87
2022/06/23 01:03:15;;;;;;;1.95;1.40;;;14.40;66.90;;;;;;4104929;28;20594;-89
2022/06/23 01:05:42;;;;;;;2.90;1.52;;;14.40;66.90;;;;;;4099799;28;20727;-86
2022/06/23 01:08:21;;;;;;;2.58;1.70;;;14.40;66.90;;;;;;4111118;28;20093;-88
2022/06/23 01:11:07;;;;;;;2.45;1.48;;;14.40;66.90;;;;;;4095998;28;20682;-89
2022/06/23 01:13:50;;;;;;;3.80;1.80;;;14.40;67.00;;;;;;4111526;28;20070;-90
2022/06/23 01:16:24;;;;;;;3.00;1.88;;;14.40;67.00;;;;;;4108843;28;20034;-87
2022/06/23 01:19:30;;;;;;;2.35;1.38;;;14.40;66.90;;;;;;4114177;28;22101;-89
2022/06/23 01:21:57;;;;;;;4.57;1.58;;;14.40;67.20;;;;;;4049269;29;20191;-86
2022/06/23 01:24:33;;;;;;;2.72;1.60;;;14.40;66.90;;;;;;4048651;29;20047;-87
2022/06/23 01:27:13;;;;;;;2.58;1.85;;;14.30;66.90;;;;;;4046222;29;20044;-86
2022/06/23 01:29:50;;;;;;;2.38;1.63;;;14.30;66.90;;;;;;4048580;29;20048;-88
2022/06/23 01:32:18;;;;;;;2.92;1.48;;;14.30;67.00;;;;;;4036264;29;20115;-86
2022/06/23 01:35:05;;;;;;;4.38;2.05;;;14.30;67.00;;;;;;4045361;29;20622;-89
2022/06/23 01:37:47;;;;;;;3.42;1.70;;;14.20;67.10;;;;;;4048007;29;20092;-87
2022/06/23 01:40:22;;;;;;;3.08;1.88;;;14.30;67.30;;;;;;4047058;29;20072;-85
2022/06/23 01:42:58;;;;;;;3.33;2.13;;;14.20;67.20;;;;;;4037964;29;20056;-87
2022/06/23 01:45:27;;;;;;;2.10;1.67;;;14.20;67.10;;;;;;4047626;29;20062;-89
2022/06/23 01:47:54;;;;;;;2.47;1.77;;;14.20;67.10;;;;;;4045983;29;20131;-86
2022/06/23 01:50:30;;;;;;;4.35;1.83;;;14.20;67.20;;;;;;4046445;29;20075;-88
2022/06/23 01:53:12;;;;;;;2.60;1.67;;;14.20;67.30;;;;;;4048598;29;20140;-86
2022/06/23 01:55:50;;;;;;;4.30;1.90;;;14.20;67.30;;;;;;4046374;29;20051;-86
2022/06/23 01:58:14;;;;;;;3.75;1.58;;;14.20;67.30;;;;;;4068228;28;20030;-86
2022/06/23 02:00:42;;;;;;;3.70;2.03;;;14.20;67.30;;;;;;4109814;28;20030;-87
2022/06/23 02:03:12;;;;;;;3.60;1.55;;;14.30;67.50;;;;;;4107920;28;20102;-86
2022/06/23 02:05:54;;;;;;;2.58;1.50;;;14.20;67.50;;;;;;4108585;28;20749;-86
2022/06/23 02:08:52;;;;;;;4.22;2.15;;;14.20;67.50;;;;;;4108332;28;20080;-87
2022/06/23 02:11:31;;;;;;;2.08;1.45;;;14.20;67.60;;;;;;4109436;28;20042;-88
2022/06/23 02:14:08;;;;;;;2.42;1.85;;;14.20;67.50;;;;;;4097849;28;20149;-89
2022/06/23 02:16:42;;;;;;;2.50;1.90;;;14.20;67.70;;;;;;4112884;28;20033;-86
2022/06/23 02:19:24;;;;;;;5.18;2.00;;;14.20;67.60;;;;;;4108193;28;20043;-86
2022/06/23 02:21:55;;;;;;;4.53;1.95;;;14.20;67.60;;;;;;4116811;28;20038;-87
2022/06/23 02:24:31;;;;;;;2.75;1.80;;;14.10;67.40;;;;;;4106536;28;20594;-87
2022/06/23 02:27:17;;;;;;;3.40;1.80;;;14.20;67.50;;;;;;4111555;28;20046;-86
2022/06/23 02:30:05;;;;;;;2.30;1.60;;;14.20;67.50;;;;;;4099297;28;20055;-87
2022/06/23 02:33:04;;;;;;;2.25;1.52;;;14.20;67.60;;;;;;4109791;28;20537;-86
2022/06/23 02:35:32;;;;;;;2.72;1.88;;;14.10;67.60;;;;;;4096539;28;20412;-89
2022/06/23 02:37:59;;;;;;;3.28;1.70;;;14.10;67.30;;;;;;4115241;28;20046;-90
2022/06/23 02:40:33;;;;;;;8.10;2.40;;;14.10;67.40;;;;;;4100800;28;20039;-86
2022/06/23 02:43:03;;;;;;;2.22;1.80;;;14.10;67.50;;;;;;4115652;28;20126;-90
2022/06/23 02:45:49;;;;;;;4.03;1.83;;;14.10;67.40;;;;;;4114458;28;20035;-86
2022/06/23 02:48:24;;;;;;;8.13;1.80;;;14.00;67.30;;;;;;4100024;28;20041;-89
2022/06/23 02:51:09;;;;;;;3.85;1.90;;;14.00;67.20;;;;;;4101656;28;20026;-88
2022/06/23 02:53:53;;;;;;;3.03;1.77;;;14.00;67.30;;;;;;4110150;28;20519;-87
2022/06/23 02:56:51;;;;;;;2.60;1.70;;;13.90;67.40;;;;;;4095246;28;20034;-88
2022/06/23 02:59:25;;;;;;;6.28;1.92;;;13.90;67.40;;;;;;4115115;28;20301;-86
2022/06/23 03:01:52;;;;;;;2.30;1.87;;;13.90;67.30;;;;;;4111225;28;20038;-89
2022/06/23 03:04:26;;;;;;;3.20;1.70;;;13.90;67.30;;;;;;4116187;28;20185;-87
2022/06/23 03:06:49;;;;;;;2.80;1.88;;;13.80;67.40;;;;;;4113931;28;20785;-86
2022/06/23 03:09:34;;;;;;;2.80;1.75;;;13.80;67.40;;;;;;4108390;28;21183;-86
2022/06/23 03:12:04;;;;;;;2.20;1.60;;;13.80;67.70;;;;;;4100846;28;20514;-88
2022/06/23 03:14:36;;;;;;;6.32;1.80;;;13.70;67.60;;;;;;4098876;28;20062;-86
2022/06/23 03:17:04;;;;;;;2.13;1.70;;;13.80;67.80;;;;;;4115371;28;20064;-87
2022/06/23 03:19:34;;;;;;;3.65;1.63;;;13.80;68.40;;;;;;4101693;28;20514;-86
2022/06/23 03:22:10;;;;;;;3.50;2.03;;;13.70;68.10;;;;;;4110517;28;20547;-86
2022/06/23 03:24:33;;;;;;;1.88;1.50;;;13.70;68.20;;;;;;4100005;28;20034;-86
2022/06/23 03:27:01;;;;;;;3.20;1.67;;;13.70;68.20;;;;;;4095811;28;20118;-89
2022/06/23 03:29:34;;;;;;;4.22;2.10;;;13.70;68.20;;;;;;4106021;28;20092;-86
2022/06/23 03:32:18;;;;;;;3.75;2.03;;;13.70;68.30;;;;;;4116025;28;20038;-89
2022/06/23 03:34:58;;;;;;;3.10;1.77;;;13.70;68.80;;;;;;4100140;28;20443;-88
2022/06/23 03:37:31;;;;;;;5.07;1.75;;;13.70;68.60;;;;;;4100052;28;20035;-87
2022/06/23 03:42:52;;;;;;;7.97;2.03;;;13.60;68.90;;;;;;4113418;28;20038;-88
2022/06/23 03:45:34;;;;;;;2.80;1.95;;;13.60;69.30;;;;;;4115796;28;20559;-86
2022/06/23 03:48:04;;;;;;;3.33;2.05;;;13.60;70.30;;;;;;4115054;28;20078;-87
2022/06/23 03:50:28;;;;;;;5.95;2.60;;;13.60;70.70;;;;;;4097878;28;20051;-87
2022/06/23 03:52:54;;;;;;;3.20;2.10;;;13.70;71.10;;;;;;4102547;28;20046;-87
2022/06/23 03:55:39;;;;;;;4.63;2.22;;;13.80;71.70;;;;;;4114359;28;20294;-87
2022/06/23 03:58:18;;;;;;;4.30;2.47;;;13.80;71.90;;;;;;4104996;28;20045;-86
2022/06/23 04:00:54;;;;;;;2.85;1.95;;;14.00;72.60;;;;;;4105419;28;20035;-87
2022/06/23 04:03:21;;;;;;;6.10;2.70;;;14.10;72.70;;;;;;4096647;28;20157;-88
2022/06/23 04:05:55;;;;;;;4.22;2.42;;;14.20;72.60;;;;;;4107683;28;20093;-89
2022/06/23 04:08:16;;;;;;;3.78;2.30;;;14.30;72.50;;;;;;4102481;28;20499;-87
2022/06/23 04:10:42;;;;;;;3.20;2.08;;;14.40;72.30;;;;;;4103305;28;20126;-91
2022/06/23 04:13:15;;;;;;;4.00;2.17;;;14.50;72.10;;;;;;4108727;28;20529;-89
2022/06/23 04:15:39;;;;;;;2.60;2.08;;;14.60;72.80;;;;;;4102943;28;20034;-86
2022/06/23 04:18:04;;;;;;;;;;;14.70;71.70;;;;;;4100090;28;20043;-87
2022/06/23 04:21:03;;;;;;;3.55;2.35;;;14.70;70.90;;;;;;4118669;28;20351;-88
2022/06/23 04:23:40;;;;;;;2.50;1.77;;;14.90;70.70;;;;;;4055246;29;20123;-91
2022/06/23 04:26:13;;;;;;;3.85;2.38;;;14.90;70.70;;;;;;4047601;28;20040;-87
2022/06/23 04:28:50;;;;;;;4.95;2.22;;;15.00;70.50;;;;;;4039795;29;20051;-90
2022/06/23 04:31:24;;;;;;;2.58;2.08;;;15.10;70.10;;;;;;4051944;29;20032;-87
2022/06/23 04:33:48;;;;;;;4.55;2.55;;;15.20;69.90;;;;;;4051731;29;20412;-87
2022/06/23 04:36:23;;;;;;;5.40;2.60;;;15.30;69.60;;;;;;4047896;29;20044;-87
2022/06/23 04:39:02;;;;;;;3.35;2.17;;;15.40;69.20;;;;;;4050452;29;20044;-87
2022/06/23 04:41:42;;;;;;;3.38;2.47;;;15.50;69.00;;;;;;4045807;29;20069;-87
2022/06/23 04:44:15;;;;;;;9.90;2.35;;;15.60;68.40;;;;;;4050302;29;20029;-88
2022/06/23 04:46:48;;;;;;;2.97;2.38;;;15.70;68.50;;;;;;4039749;29;20066;-87
2022/06/23 04:49:27;;;;;;;2.72;1.98;;;15.80;67.70;;;;;;4039334;29;20075;-87
2022/06/23 04:52:14;;;;;;;3.50;2.47;;;15.90;67.40;;;;;;4045738;29;20048;-88
2022/06/23 04:54:50;;;;;;;3.47;2.20;;;16.00;66.50;;;;;;4055836;29;20813;-90
2022/06/23 04:57:34;;;;;;;4.53;2.15;;;16.00;66.20;;;;;;4058595;29;20100;-87
2022/06/23 05:00:01;;;;;;;2.75;2.20;;;16.00;65.60;;;;;;4102219;28;20038;-87
2022/06/23 05:02:34;;;;;;;4.43;2.35;;;16.10;65.10;;;;;;4118758;28;20038;-90
2022/06/23 05:05:04;;;;;;;5.28;2.45;;;16.10;64.80;;;;;;4105128;28;20153;-88
2022/06/23 05:07:45;;;;;;;3.08;2.20;;;16.10;64.70;;;;;;4113552;28;20430;-88
2022/06/23 05:10:12;;;;;;;5.43;2.50;;;16.10;64.40;;;;;;4098380;28;20145;-89
2022/06/23 05:12:38;;;;;;;3.58;2.38;;;16.10;65.00;;;;;;4109349;28;20049;-87
2022/06/23 05:15:12;;;;;;;3.70;2.45;;;16.20;65.00;;;;;;4106562;28;20026;-88
2022/06/23 05:17:39;;;;;;;4.22;2.50;;;16.20;64.50;;;;;;4101297;28;20031;-87
2022/06/23 05:20:04;;;;;;;3.30;2.47;;;16.20;63.80;;;;;;4108202;28;20035;-90
2022/06/23 05:22:38;;;;;;;4.22;2.30;;;16.20;63.50;;;;;;4100356;28;20101;-88
2022/06/23 05:25:14;;;;;;;5.82;2.92;;;16.20;63.20;;;;;;4097916;28;20083;-88
2022/06/23 05:27:36;;;;;;;6.28;2.90;;;16.20;63.10;;;;;;4098405;28;20035;-87
2022/06/23 05:30:28;;;;;;;4.80;2.70;;;16.20;62.80;;;;;;4112805;28;20073;-88
2022/06/23 05:33:04;;;;;;;5.82;2.60;;;16.20;62.80;;;;;;4113907;28;20038;-89
2022/06/23 05:35:41;;;;;;;5.88;2.53;;;16.20;62.80;;;;;;4103000;28;20066;-88
2022/06/23 05:38:09;;;;;;;3.05;2.45;;;16.20;62.60;;;;;;4102454;28;20041;-88
2022/06/23 05:40:30;;;;;;;3.33;2.45;;;16.20;62.80;;;;;;4107928;28;20388;-89
2022/06/23 05:42:54;;;;;;;5.30;2.70;;;16.20;63.10;;;;;;4104512;28;20034;-89
2022/06/23 05:45:23;;;;;;;4.82;3.08;;;16.20;63.10;;;;;;4106264;28;20091;-89
2022/06/23 05:47:45;;;;;;;4.15;2.80;;;16.20;62.50;;;;;;4121245;28;20098;-88
2022/06/23 05:50:16;;;;;;;4.43;2.80;;;16.10;62.30;;;;;;4122016;28;20111;-90
2022/06/23 05:52:57;;;;;;;4.18;2.70;;;16.00;62.50;;;;;;4120389;28;20180;-90
2022/06/23 05:55:34;;;;;;;4.10;2.47;;;16.00;63.20;;;;;;4120563;28;21166;-87
2022/06/23 05:58:33;;;;;;;5.88;2.65;;;16.00;63.60;;;;;;4126127;28;20502;-90
2022/06/23 06:00:57;;;;;;;4.43;2.65;;;16.00;63.90;;;;;;4107845;28;20078;-88
2022/06/23 06:03:29;;;;;;;2.88;2.30;;;16.00;64.00;;;;;;4118727;28;20030;-88
2022/06/23 06:05:55;;;;;;;4.57;2.72;;;16.00;64.50;;;;;;4119927;28;20119;-87
2022/06/23 06:09:35;;;;;;;4.50;2.50;;;16.00;64.80;;;;;;4122250;28;20054;-89
2022/06/23 06:11:20;;;;;;;3.83;2.80;;;16.10;65.10;;;;;;4123688;28;20470;-88
2022/06/23 06:13:42;;;;;;;3.42;2.53;;;16.10;64.80;;;;;;4104181;28;20420;-87
2022/06/23 06:16:04;;;;;;;4.85;2.80;;;16.20;64.90;;;;;;4115076;28;20034;-88
2022/06/23 06:18:33;;;;;;;3.83;2.63;;;16.20;64.80;;;;;;4110691;28;20047;-88
2022/06/23 06:20:57;;;;;;;6.25;2.40;;;16.20;64.80;;;;;;4116580;28;20045;-88
2022/06/23 06:23:39;;;;;;;8.43;3.10;;;16.20;64.90;;;;;;4105188;28;20035;-89
2022/06/23 06:26:00;;;;;;;4.70;3.05;;;16.20;64.80;;;;;;4109847;28;20030;-89
2022/06/23 06:28:24;;;;;;;5.05;2.85;;;16.30;64.80;;;;;;4125795;28;20038;-88
2022/06/23 06:30:57;;;;;;;5.72;2.95;;;16.30;64.80;;;;;;4122487;28;20053;-88
2022/06/23 06:33:33;;;;;;;3.55;2.63;;;16.30;64.80;;;;;;4117193;28;20978;-88
2022/06/23 06:35:55;;;;;;;3.58;2.42;;;16.40;64.60;;;;;;4100233;28;20034;-87
2022/06/23 06:38:17;;;;;;;3.47;2.40;;;16.40;64.70;;;;;;4117187;28;20406;-88
2022/06/23 06:40:42;;;;;;;4.47;2.70;;;16.40;64.90;;;;;;4119766;28;20039;-87
2022/06/23 06:43:13;;;;;;;2.95;2.42;;;16.50;65.10;;;;;;4116594;28;20055;-88
2022/06/23 06:45:36;;;;;;;3.53;2.47;;;16.50;65.20;;;;;;4105782;28;20098;-87
2022/06/23 06:47:58;;;;;;;5.70;2.65;;;16.60;65.20;;;;;;4121318;28;20041;-89
2022/06/23 06:50:34;;;;;;;4.07;3.00;;;16.60;65.20;;;;;;4119811;28;20027;-87
2022/06/23 06:52:58;;;;;;;4.13;2.75;;;16.70;65.10;;;;;;4119233;28;20161;-87
2022/06/23 06:55:25;;;;;;;2.80;2.10;;;16.70;64.90;;;;;;4119602;28;20073;-86
2022/06/23 06:57:51;;;;;;;3.15;2.25;;;16.70;64.80;;;;;;4115771;28;20402;-85
2022/06/23 07:00:25;;;;;;;4.65;2.28;;;16.80;64.80;;;;;;4100173;28;20034;-84
2022/06/23 07:02:49;;;;;;;;;;;16.90;64.60;;;;;;4086170;28;20039;-84
2022/06/23 07:05:32;;;;;;;4.88;2.60;;;17.00;64.40;;;;;;4112439;28;20370;-86
2022/06/23 07:08:11;;;;;;;4.88;2.40;;;17.00;64.40;;;;;;4112372;28;20054;-86
2022/06/23 07:10:39;;;;;;;12.45;2.95;;;17.10;64.40;;;;;;4110392;28;20162;-85
2022/06/23 07:13:09;;;;;;;3.03;2.42;;;17.10;63.60;;;;;;4114780;28;20118;-87
2022/06/23 07:15:37;;;;;;;2.83;2.20;;;17.20;63.30;;;;;;4114135;28;20089;-83
2022/06/23 07:18:23;;;;;;;2.92;1.90;;;17.30;63.20;;;;;;4111514;28;20062;-84
2022/06/23 07:21:00;;;;;;;5.30;2.67;;;17.30;62.90;;;;;;4111131;28;20066;-84
2022/06/23 07:23:44;;;;;;;5.95;2.70;;;17.30;62.60;;;;;;4100939;28;20051;-86
2022/06/23 07:26:40;;;;;;;5.95;3.00;;;17.40;62.10;;;;;;4114824;28;20570;-84
2022/06/23 07:29:18;;;;;;;4.97;2.25;;;17.40;62.10;;;;;;4099441;28;20110;-87
2022/06/23 07:32:04;;;;;;;4.03;2.17;;;17.50;62.50;;;;;;4111332;28;20100;-86
2022/06/23 07:34:27;;;;;;;4.78;3.00;;;17.60;62.90;;;;;;4114490;28;20034;-86
2022/06/23 07:36:57;;;;;;;5.28;2.88;;;17.60;62.80;;;;;;4099171;28;20114;-85
2022/06/23 07:39:24;;;;;;;4.43;2.30;;;17.70;62.60;;;;;;4113747;28;20179;-84
2022/06/23 07:41:51;;;;;;;4.07;2.60;;;17.70;62.70;;;;;;4095225;28;20043;-85
2022/06/23 07:44:28;;;;;;;4.63;2.80;;;17.80;62.80;;;;;;4109410;28;20737;-85
2022/06/23 07:46:51;;;;;;;6.97;2.72;;;17.90;62.00;;;;;;4098921;28;20053;-84
2022/06/23 07:49:12;;;;;;;4.15;2.97;;;18.00;61.90;;;;;;4113715;28;20026;-86
2022/06/23 07:51:35;;;;;;;3.90;2.80;;;18.00;61.90;;;;;;4112559;28;20039;-85
2022/06/23 07:53:57;;;;;;;5.25;2.92;;;18.10;62.00;;;;;;4098996;28;20077;-86
2022/06/23 07:56:26;;;;;;;4.32;3.58;;;18.20;62.10;;;;;;4113964;28;20450;-85
2022/06/23 07:58:52;;;;;;;4.18;2.95;;;18.20;61.20;;;;;;4115252;28;20046;-84
2022/06/23 08:01:21;;;;;;;3.95;2.78;;;18.30;60.80;;;;;;4114914;28;20042;-85
2022/06/23 08:03:58;;;;;;;5.53;3.75;;;18.40;60.80;;;;;;4105830;28;20039;-86
2022/06/23 08:06:21;;;;;;;4.90;3.30;;;18.40;60.30;;;;;;4114540;28;20038;-86
2022/06/23 08:08:44;;;;;;;7.85;3.88;;;18.40;60.70;;;;;;4112982;28;20477;-84
2022/06/23 08:14:00;;;;;;;5.63;3.60;;;18.60;61.30;;;;;;4112828;28;20736;-86
2022/06/23 08:19:08;;;;;;;3.63;2.83;;;18.80;61.40;;;;;;4109802;28;20034;-83
2022/06/23 08:21:39;;;;;;;6.70;3.95;;;18.90;60.80;;;;;;4110773;28;20374;-83
2022/06/23 08:24:18;;;;;;;4.90;3.08;;;18.90;60.50;;;;;;4110136;28;20026;-83
2022/06/23 08:26:45;;;;;;;7.93;4.85;;;19.00;60.60;;;;;;4105887;28;20797;-83
2022/06/23 08:29:11;;;;;;;6.20;3.50;;;19.10;60.20;;;;;;4099424;28;20503;-85
2022/06/23 08:31:33;;;;;;;5.20;3.10;;;19.20;59.90;;;;;;4110204;28;20065;-82
2022/06/23 08:33:56;;;;;;;5.07;3.30;;;19.20;60.10;;;;;;4109194;28;20057;-82
2022/06/23 08:36:22;;;;;;;5.47;3.60;;;19.30;60.30;;;;;;4095850;28;20027;-83
2022/06/23 08:39:02;;;;;;;6.95;4.40;;;19.40;60.10;;;;;;4099672;28;21969;-82
2022/06/23 08:41:38;;;;;;;9.73;3.65;;;19.50;59.60;;;;;;4097542;28;20039;-83
2022/06/23 08:44:12;;;;;;;5.95;3.95;;;19.60;59.60;;;;;;4109515;28;20032;-85
2022/06/23 08:46:57;;;;;;;5.70;3.38;;;19.60;58.90;;;;;;4105775;28;20023;-85
2022/06/23 08:49:32;;;;;;;4.45;3.13;;;19.70;58.90;;;;;;4096095;28;20118;-82
2022/06/23 08:52:24;;;;;;;6.13;3.35;;;19.70;59.10;;;;;;4109537;28;20038;-85
2022/06/23 08:55:07;;;;;;;5.28;2.72;;;19.80;59.20;;;;;;4098706;28;20408;-84
2022/06/23 08:57:38;;;;;;;5.93;3.08;;;19.90;59.20;;;;;;4108415;28;20884;-84
2022/06/23 09:00:09;;;;;;;6.65;3.50;;;20.00;59.20;;;;;;4110007;28;20034;-85
2022/06/23 09:02:45;;;;;;;5.78;3.60;;;20.10;58.90;;;;;;4097911;28;20092;-85
2022/06/23 09:05:21;;;;;;;5.78;3.40;;;20.10;58.40;;;;;;4106844;28;20031;-86
2022/06/23 09:08:07;;;;;;;6.47;3.60;;;20.20;57.80;;;;;;4094367;28;20066;-86
2022/06/23 09:10:49;;;;;;;8.13;3.95;;;20.30;57.40;;;;;;4108847;28;20416;-85
2022/06/23 09:13:29;;;;;;;4.18;3.03;;;20.30;57.70;;;;;;4107896;28;20406;-85
2022/06/23 09:16:12;;;;;;;5.68;3.88;;;20.30;58.10;;;;;;4097066;28;20039;-85
2022/06/23 09:18:52;;;;;;;7.78;3.92;;;20.40;57.60;;;;;;4092817;28;20612;-83
2022/06/23 09:21:32;;;;;;;7.32;3.65;;;20.40;57.70;;;;;;4100838;28;20117;-86
2022/06/23 09:24:25;;;;;;;6.00;3.60;;;20.50;58.20;;;;;;4115564;28;20484;-86
2022/06/23 09:26:49;;;;;;;6.32;3.70;;;20.50;58.40;;;;;;4115111;28;20030;-84
2022/06/23 09:29:14;;;;;;;9.63;4.05;;;20.60;57.90;;;;;;4098182;28;20045;-85
2022/06/23 09:31:58;;;;;;;5.60;3.42;;;20.60;57.20;;;;;;4116796;28;20122;-85
2022/06/23 09:34:38;;;;;;;5.57;3.33;;;20.70;57.30;;;;;;4116874;28;20196;-85
2022/06/23 09:37:32;;;;;;;6.40;3.30;;;20.70;57.50;;;;;;4108254;28;20418;-85
2022/06/23 09:40:15;;;;;;;4.85;2.70;;;20.80;57.90;;;;;;4118004;28;20050;-85
2022/06/23 09:42:58;;;;;;;5.88;3.35;;;20.90;58.20;;;;;;4118958;28;20066;-85
2022/06/23 09:45:41;;;;;;;4.28;2.80;;;21.00;58.20;;;;;;4099717;28;20034;-85
2022/06/23 09:48:09;;;;;;;6.47;3.08;;;21.10;58.00;;;;;;4118181;28;20411;-85
2022/06/23 09:50:57;;;;;;;4.95;2.97;;;21.20;57.70;;;;;;4117104;28;20030;-86
2022/06/23 09:53:40;;;;;;;4.75;2.97;;;21.30;57.30;;;;;;4103128;28;20047;-86
2022/06/23 09:56:45;;;;;;;3.65;2.78;;;21.40;56.30;;;;;;4119824;28;20863;-87
2022/06/23 09:59:50;;;;;;;2.97;2.63;;;21.40;56.20;;;;;;4122060;28;20042;-87
2022/06/23 10:02:52;;;;;;;3.65;2.33;;;21.30;54.20;;;;;;4099256;28;20031;-84
2022/06/23 10:08:48;;;;;;;4.72;3.20;;;21.20;55.30;;;;;;4119987;28;20069;-86
2022/06/23 10:11:38;;;;;;;5.43;2.65;;;21.00;55.30;;;;;;4107309;28;20039;-84
2022/06/23 10:14:25;;;;;;;2.53;2.33;;;20.90;56.10;;;;;;4114419;28;20050;-86
2022/06/23 10:16:49;;;;;;;5.03;3.15;;;20.70;56.00;;;;;;4120195;28;20038;-88
2022/06/23 10:19:19;;;;;;;5.75;2.60;;;20.60;56.10;;;;;;4105524;28;20116;-88
2022/06/23 10:21:59;;;;;;;3.30;2.45;;;20.60;56.90;;;;;;4126057;28;20118;-88
2022/06/23 10:25:05;;;;;;;5.03;2.10;;;20.50;57.00;;;;;;4120629;28;20031;-86
2022/06/23 10:27:53;;;;;;;3.78;2.47;;;20.30;57.50;;;;;;4099102;28;20046;-87
2022/06/23 10:30:43;;;;;;;3.20;2.60;;;20.20;57.30;;;;;;4106059;28;20038;-87
2022/06/23 10:33:29;;;;;;;4.40;2.67;;;20.00;57.90;;;;;;4122333;28;20030;-88
2022/06/23 10:36:02;;;;;;;6.13;2.30;;;20.00;58.30;;;;;;4104886;28;20031;-87
2022/06/23 10:38:50;;;;;;;4.82;2.50;;;19.90;59.00;;;;;;4120528;28;20129;-88
2022/06/23 10:41:29;;;;;;;4.25;2.20;;;19.80;59.40;;;;;;4107461;28;20114;-89
2022/06/23 10:44:27;;;;;;;3.60;2.78;;;19.70;60.10;;;;;;4101557;28;20077;-89
2022/06/23 10:47:16;;;;;;;6.05;3.20;;;19.70;60.50;;;;;;4118491;28;20045;-89
2022/06/23 10:49:54;;;;;;;5.20;2.65;;;19.70;60.20;;;;;;4118275;28;20531;-90
2022/06/23 10:52:22;;;;;;;3.15;2.63;;;19.70;60.40;;;;;;4099370;28;20686;-85
2022/06/23 10:55:10;;;;;;;3.88;2.78;;;19.70;60.60;;;;;;4120418;28;20030;-87
2022/06/23 10:57:43;;;;;;;4.75;2.50;;;19.70;60.30;;;;;;4114208;28;20396;-86
2022/06/23 11:00:29;;;;;;;11.65;3.50;;;19.70;60.30;;;;;;4100806;28;20106;-90
2022/06/23 11:03:09;;;;;;;6.40;3.28;;;19.70;59.90;;;;;;4119421;28;20113;-87
2022/06/23 11:05:58;;;;;;;4.20;2.33;;;19.60;60.30;;;;;;4118428;28;20487;-88
2022/06/23 11:08:34;;;;;;;4.53;2.78;;;19.50;61.30;;;;;;4101484;28;20087;-86
2022/06/23 11:11:07;;;;;;;7.85;2.90;;;19.60;61.30;;;;;;4108478;28;21176;-87
2022/06/23 11:14:00;;;;;;;4.90;2.70;;;19.60;61.60;;;;;;4112409;28;20038;-88
2022/06/23 11:16:30;;;;;;;4.57;2.80;;;19.70;61.30;;;;;;4106215;28;20043;-86
2022/06/23 11:19:19;;;;;;;5.20;2.25;;;19.60;61.70;;;;;;4120352;28;20034;-88
2022/06/23 11:22:12;;;;;;;3.38;2.30;;;19.60;62.60;;;;;;4123993;28;20113;-85
2022/06/23 11:24:57;;;;;;;2.97;2.60;;;19.70;62.40;;;;;;4115091;28;20180;-88
2022/06/23 11:27:50;;;;;;;4.28;2.50;;;19.70;61.20;;;;;;4116799;28;20039;-86
2022/06/23 11:30:27;;;;;;;3.78;2.95;;;19.60;61.00;;;;;;4106635;28;20057;-87
2022/06/23 11:33:19;;;;;;;5.30;3.17;;;19.70;60.70;;;;;;4106603;28;20039;-89
2022/06/23 11:36:00;;;;;;;5.95;3.10;;;19.70;61.00;;;;;;4114758;28;20091;-89
2022/06/23 11:38:56;;;;;;;4.78;3.33;;;19.70;61.60;;;;;;4103140;28;20344;-89
2022/06/23 11:41:48;;;;;;;5.30;3.88;;;19.70;61.80;;;;;;4120695;28;20688;-89
2022/06/23 11:44:42;;;;;;;5.00;2.65;;;19.80;61.70;;;;;;4109031;28;20181;-86
2022/06/23 11:47:11;;;;;;;4.97;3.10;;;19.80;61.70;;;;;;4119712;28;20030;-89
2022/06/23 11:49:51;;;;;;;8.73;3.20;;;19.90;61.30;;;;;;4118114;28;20542;-92
2022/06/23 11:52:52;;;;;;;3.30;2.50;;;19.90;60.50;;;;;;4120918;28;20113;-88
2022/06/23 11:55:29;;;;;;;8.70;2.45;;;19.80;60.80;;;;;;4044557;29;20114;-88
2022/06/23 11:57:56;;;;;;;5.50;3.28;;;19.80;62.00;;;;;;4043563;29;20063;-90
2022/06/23 12:00:22;;;;;;;4.45;2.00;;;19.80;61.60;;;;;;4042379;29;20029;-91
2022/06/23 12:03:17;;;;;;;4.75;2.58;;;19.80;61.70;;;;;;4040599;29;20028;-86
2022/06/23 12:05:54;;;;;;;3.22;2.20;;;19.80;61.90;;;;;;4038353;29;20544;-88
2022/06/23 12:08:43;;;;;;;4.03;2.20;;;19.90;61.90;;;;;;4032312;29;20116;-90
2022/06/23 12:11:05;;;;;;;5.95;2.25;;;19.90;62.20;;;;;;4042734;29;20060;-91
2022/06/23 12:13:32;;;;;;;4.38;2.40;;;19.90;61.30;;;;;;4046402;29;20116;-89
2022/06/23 12:15:57;;;;;;;2.88;1.95;;;19.90;61.30;;;;;;4046972;29;20064;-91
2022/06/23 12:18:39;;;;;;;4.05;1.80;;;19.90;61.60;;;;;;4043230;29;20654;-91
2022/06/23 12:21:09;;;;;;;4.47;1.80;;;19.90;61.60;;;;;;4039684;29;20040;-87
2022/06/23 12:24:03;;;;;;;2.30;1.60;;;19.90;62.50;;;;;;4034828;29;20141;-87
2022/06/23 12:26:32;;;;;;;3.38;1.90;;;19.90;62.60;;;;;;4037794;29;20044;-92
2022/06/23 12:29:15;;;;;;;4.68;1.90;;;19.80;61.30;;;;;;4026567;29;20128;-89
2022/06/23 12:35:35;;;;;;;4.80;2.17;;;19.90;61.80;;;;;;4117531;28;20084;-87
2022/06/23 12:38:11;;;;;;;5.93;2.13;;;19.80;61.90;;;;;;4115765;28;20042;-88
2022/06/23 12:40:49;;;;;;;4.80;2.60;;;19.80;62.00;;;;;;4119497;28;20046;-89
2022/06/23 12:43:35;;;;;;;3.20;2.35;;;19.90;62.30;;;;;;4110419;28;20655;-86
2022/06/23 12:46:01;;;;;;;3.20;2.38;;;19.90;61.90;;;;;;4111926;28;20045;-88
2022/06/23 12:49:01;;;;;;;7.40;3.10;;;19.80;62.10;;;;;;4120408;28;20125;-90
2022/06/23 12:51:42;;;;;;;5.82;2.55;;;19.80;62.90;;;;;;4115902;28;20034;-91
2022/06/23 12:54:17;;;;;;;3.75;2.22;;;19.80;63.30;;;;;;4101349;28;20058;-89
2022/06/23 12:57:13;;;;;;;3.13;1.88;;;19.70;62.80;;;;;;4109462;28;20038;-87
2022/06/23 13:00:07;;;;;;;6.07;3.60;;;19.80;63.50;;;;;;4103923;28;20046;-85
2022/06/23 13:03:20;;;;;;;6.95;3.75;;;19.80;62.30;;;;;;4113096;28;20034;-84
2022/06/23 13:06:19;;;;;;;7.10;2.28;;;19.80;62.20;;;;;;4061466;29;20538;-85
2022/06/23 13:08:49;;;;;;;4.00;2.03;;;19.70;62.50;;;;;;4043657;29;20126;-85
2022/06/23 13:11:27;;;;;;;6.07;2.20;;;19.70;62.50;;;;;;4063680;29;20140;-87
2022/06/23 13:13:53;;;;;;;2.70;2.05;;;19.70;62.90;;;;;;4064390;29;20070;-85
2022/06/23 13:16:38;;;;;;;3.97;1.73;;;19.70;62.80;;;;;;4065344;29;20785;-84
2022/06/23 13:19:14;;;;;;;2.97;1.70;;;19.70;63.80;;;;;;4049879;29;20874;-86
2022/06/23 13:21:37;;;;;;;2.70;1.88;;;19.70;64.20;;;;;;4070935;29;20183;-85
2022/06/23 13:24:02;;;;;;;9.07;2.13;;;19.70;63.80;;;;;;4068037;29;20040;-85
2022/06/23 13:26:35;;;;;;;6.95;2.58;;;19.80;64.00;;;;;;4065217;29;20120;-86
2022/06/23 13:29:18;;;;;;;3.63;1.70;;;19.80;63.90;;;;;;4064341;29;20055;-83
2022/06/23 13:32:00;;;;;;;3.50;1.77;;;19.90;64.10;;;;;;4054638;29;20182;-86
2022/06/23 13:34:30;;;;;;;5.28;1.80;;;19.90;64.10;;;;;;4061343;29;20031;-85
2022/06/23 13:37:08;;;;;;;3.10;1.80;;;20.00;64.30;;;;;;4060822;29;20044;-87
2022/06/23 13:39:54;;;;;;;3.88;2.10;;;20.00;64.20;;;;;;4069206;29;20028;-84
2022/06/23 13:42:44;;;;;;;2.58;1.60;;;20.10;64.10;;;;;;4114152;28;20037;-86
2022/06/23 13:45:23;;;;;;;8.60;1.80;;;20.10;63.50;;;;;;4115284;28;20062;-87
2022/06/23 13:48:27;;;;;;;2.50;1.65;;;20.10;63.60;;;;;;4112506;28;20042;-86